sensor_id;sensor_type;location;lat;lon;timestamp;P1;durP1;ratioP1;P2;durP2;ratioP2
84161;SDS011;74285;52.372;12.924;2024-03-08T00:01:05;23.00;;;9.00;;
84161;SDS011;74285;52.372;12.924;2024-03-08T00:03:31;21.60;;;8.90;;
84161;SDS011;74285;52.372;12.924;2024-03-08T00:05:57;20.88;;;8.55;;
84161;SDS011;74285;52.372;12.924;2024-03-08T00:08:22;22.00;;;8.47;;
84161;SDS011;74285;52.372;12.924;2024-03-08T00:10:48;22.63;;;9.23;;
84161;SDS011;74285;52.372;12.924;2024-03-08T00:13:13;20.43;;;9.33;;
84161;SDS011;74285;52.372;12.924;2024-03-08T00:15:38;21.47;;;9.27;;
84161;SDS011;74285;52.372;12.924;2024-03-08T00:18:04;20.47;;;8.43;;
84161;SDS011;74285;52.372;12.924;2024-03-08T00:20:29;23.50;;;9.38;;
84161;SDS011;74285;52.372;12.924;2024-03-08T00:22:54;19.73;;;8.60;;
84161;SDS011;74285;52.372;12.924;2024-03-08T00:25:22;25.58;;;10.00;;
84161;SDS011;74285;52.372;12.924;2024-03-08T00:27:48;24.63;;;10.20;;
84161;SDS011;74285;52.372;12.924;2024-03-08T00:30:14;22.52;;;10.07;;
84161;SDS011;74285;52.372;12.924;2024-03-08T00:32:39;19.80;;;9.03;;
84161;SDS011;74285;52.372;12.924;2024-03-08T00:35:05;19.13;;;8.95;;
84161;SDS011;74285;52.372;12.924;2024-03-08T00:37:33;19.42;;;8.85;;
84161;SDS011;74285;52.372;12.924;2024-03-08T00:40:01;22.67;;;9.50;;
84161;SDS011;74285;52.372;12.924;2024-03-08T00:42:26;18.67;;;8.18;;
84161;SDS011;74285;52.372;12.924;2024-03-08T00:44:52;24.05;;;9.90;;
84161;SDS011;74285;52.372;12.924;2024-03-08T00:47:17;25.10;;;9.90;;
84161;SDS011;74285;52.372;12.924;2024-03-08T00:49:42;25.55;;;9.95;;
84161;SDS011;74285;52.372;12.924;2024-03-08T00:52:08;24.83;;;10.20;;
84161;SDS011;74285;52.372;12.924;2024-03-08T00:54:36;26.10;;;11.07;;
84161;SDS011;74285;52.372;12.924;2024-03-08T00:57:02;21.08;;;8.88;;
84161;SDS011;74285;52.372;12.924;2024-03-08T00:59:28;23.20;;;9.68;;
84161;SDS011;74285;52.372;12.924;2024-03-08T01:01:53;27.58;;;9.05;;
84161;SDS011;74285;52.372;12.924;2024-03-08T01:04:18;23.93;;;10.43;;
84161;SDS011;74285;52.372;12.924;2024-03-08T01:06:45;23.27;;;9.98;;
84161;SDS011;74285;52.372;12.924;2024-03-08T01:09:12;21.05;;;9.30;;
84161;SDS011;74285;52.372;12.924;2024-03-08T01:11:37;23.37;;;9.93;;
84161;SDS011;74285;52.372;12.924;2024-03-08T01:14:02;23.77;;;9.82;;
84161;SDS011;74285;52.372;12.924;2024-03-08T01:16:28;24.88;;;10.75;;
84161;SDS011;74285;52.372;12.924;2024-03-08T01:18:53;26.63;;;10.67;;
84161;SDS011;74285;52.372;12.924;2024-03-08T01:21:18;27.27;;;9.47;;
84161;SDS011;74285;52.372;12.924;2024-03-08T01:23:44;24.57;;;9.47;;
84161;SDS011;74285;52.372;12.924;2024-03-08T01:26:09;22.77;;;8.73;;
84161;SDS011;74285;52.372;12.924;2024-03-08T01:28:34;21.10;;;9.77;;
84161;SDS011;74285;52.372;12.924;2024-03-08T01:31:00;20.08;;;9.45;;
84161;SDS011;74285;52.372;12.924;2024-03-08T01:33:25;24.30;;;9.30;;
84161;SDS011;74285;52.372;12.924;2024-03-08T01:35:52;25.05;;;9.05;;
84161;SDS011;74285;52.372;12.924;2024-03-08T01:38:20;27.63;;;10.05;;
84161;SDS011;74285;52.372;12.924;2024-03-08T01:40:48;19.00;;;8.30;;
84161;SDS011;74285;52.372;12.924;2024-03-08T01:43:20;23.50;;;9.68;;
84161;SDS011;74285;52.372;12.924;2024-03-08T01:45:47;26.55;;;10.82;;
84161;SDS011;74285;52.372;12.924;2024-03-08T01:48:12;22.30;;;9.75;;
84161;SDS011;74285;52.372;12.924;2024-03-08T01:50:39;22.48;;;9.63;;
84161;SDS011;74285;52.372;12.924;2024-03-08T01:53:05;22.33;;;9.37;;
84161;SDS011;74285;52.372;12.924;2024-03-08T01:55:30;21.17;;;10.10;;
84161;SDS011;74285;52.372;12.924;2024-03-08T01:57:56;25.37;;;11.63;;
84161;SDS011;74285;52.372;12.924;2024-03-08T02:00:22;23.88;;;9.57;;
84161;SDS011;74285;52.372;12.924;2024-03-08T02:02:48;23.65;;;9.75;;
84161;SDS011;74285;52.372;12.924;2024-03-08T02:05:14;20.90;;;8.88;;
84161;SDS011;74285;52.372;12.924;2024-03-08T02:07:42;23.17;;;9.77;;
84161;SDS011;74285;52.372;12.924;2024-03-08T02:10:09;25.75;;;10.50;;
84161;SDS011;74285;52.372;12.924;2024-03-08T02:12:34;24.92;;;10.25;;
84161;SDS011;74285;52.372;12.924;2024-03-08T02:15:00;23.60;;;10.20;;
84161;SDS011;74285;52.372;12.924;2024-03-08T02:17:25;25.17;;;10.47;;
84161;SDS011;74285;52.372;12.924;2024-03-08T02:19:50;26.53;;;10.60;;
84161;SDS011;74285;52.372;12.924;2024-03-08T02:22:16;29.33;;;10.43;;
84161;SDS011;74285;52.372;12.924;2024-03-08T02:24:41;31.80;;;11.67;;
84161;SDS011;74285;52.372;12.924;2024-03-08T02:27:06;26.53;;;10.73;;
84161;SDS011;74285;52.372;12.924;2024-03-08T02:29:32;21.77;;;9.23;;
84161;SDS011;74285;52.372;12.924;2024-03-08T02:31:57;26.95;;;10.55;;
84161;SDS011;74285;52.372;12.924;2024-03-08T02:34:23;25.10;;;9.53;;
84161;SDS011;74285;52.372;12.924;2024-03-08T02:36:48;23.80;;;10.47;;
84161;SDS011;74285;52.372;12.924;2024-03-08T02:39:13;23.90;;;9.67;;
84161;SDS011;74285;52.372;12.924;2024-03-08T02:41:38;25.57;;;10.00;;
84161;SDS011;74285;52.372;12.924;2024-03-08T02:44:04;28.23;;;11.53;;
84161;SDS011;74285;52.372;12.924;2024-03-08T02:46:29;27.47;;;10.47;;
84161;SDS011;74285;52.372;12.924;2024-03-08T02:48:55;23.80;;;9.98;;
84161;SDS011;74285;52.372;12.924;2024-03-08T02:51:20;21.90;;;10.30;;
84161;SDS011;74285;52.372;12.924;2024-03-08T02:53:45;24.77;;;10.27;;
84161;SDS011;74285;52.372;12.924;2024-03-08T02:56:13;27.70;;;10.95;;
84161;SDS011;74285;52.372;12.924;2024-03-08T02:58:41;25.55;;;10.15;;
84161;SDS011;74285;52.372;12.924;2024-03-08T03:01:07;26.48;;;10.80;;
84161;SDS011;74285;52.372;12.924;2024-03-08T03:03:33;22.85;;;10.23;;
84161;SDS011;74285;52.372;12.924;2024-03-08T03:05:58;25.93;;;10.77;;
84161;SDS011;74285;52.372;12.924;2024-03-08T03:08:23;22.83;;;10.27;;
84161;SDS011;74285;52.372;12.924;2024-03-08T03:10:49;21.10;;;9.17;;
84161;SDS011;74285;52.372;12.924;2024-03-08T03:13:14;24.80;;;11.00;;
84161;SDS011;74285;52.372;12.924;2024-03-08T03:15:39;21.30;;;9.90;;
84161;SDS011;74285;52.372;12.924;2024-03-08T03:18:06;27.65;;;12.27;;
84161;SDS011;74285;52.372;12.924;2024-03-08T03:20:32;26.05;;;11.07;;
84161;SDS011;74285;52.372;12.924;2024-03-08T03:22:58;29.27;;;12.90;;
84161;SDS011;74285;52.372;12.924;2024-03-08T03:25:26;26.95;;;12.65;;
84161;SDS011;74285;52.372;12.924;2024-03-08T03:27:54;30.85;;;11.90;;
84161;SDS011;74285;52.372;12.924;2024-03-08T03:30:22;26.98;;;11.52;;
84161;SDS011;74285;52.372;12.924;2024-03-08T03:32:48;29.50;;;11.68;;
84161;SDS011;74285;52.372;12.924;2024-03-08T03:35:15;25.08;;;11.23;;
84161;SDS011;74285;52.372;12.924;2024-03-08T03:37:41;28.63;;;11.30;;
84161;SDS011;74285;52.372;12.924;2024-03-08T03:40:16;24.63;;;10.52;;
84161;SDS011;74285;52.372;12.924;2024-03-08T03:42:43;25.35;;;11.00;;
84161;SDS011;74285;52.372;12.924;2024-03-08T03:45:10;26.25;;;10.38;;
84161;SDS011;74285;52.372;12.924;2024-03-08T03:47:36;25.73;;;9.80;;
84161;SDS011;74285;52.372;12.924;2024-03-08T03:50:03;28.38;;;12.02;;
84161;SDS011;74285;52.372;12.924;2024-03-08T03:52:29;26.65;;;10.98;;
84161;SDS011;74285;52.372;12.924;2024-03-08T03:54:54;28.13;;;10.33;;
84161;SDS011;74285;52.372;12.924;2024-03-08T03:57:19;25.83;;;9.67;;
84161;SDS011;74285;52.372;12.924;2024-03-08T03:59:47;26.63;;;10.40;;
84161;SDS011;74285;52.372;12.924;2024-03-08T04:02:13;27.00;;;10.43;;
84161;SDS011;74285;52.372;12.924;2024-03-08T04:04:38;23.17;;;9.93;;
84161;SDS011;74285;52.372;12.924;2024-03-08T04:07:03;27.87;;;10.00;;
84161;SDS011;74285;52.372;12.924;2024-03-08T04:09:29;27.42;;;10.88;;
84161;SDS011;74285;52.372;12.924;2024-03-08T04:11:55;30.17;;;11.40;;
84161;SDS011;74285;52.372;12.924;2024-03-08T04:14:21;27.30;;;10.68;;
84161;SDS011;74285;52.372;12.924;2024-03-08T04:19:13;27.42;;;9.48;;
84161;SDS011;74285;52.372;12.924;2024-03-08T04:21:38;26.52;;;10.48;;
84161;SDS011;74285;52.372;12.924;2024-03-08T04:24:04;22.40;;;9.63;;
84161;SDS011;74285;52.372;12.924;2024-03-08T04:26:30;27.92;;;11.00;;
84161;SDS011;74285;52.372;12.924;2024-03-08T04:28:55;25.25;;;10.40;;
84161;SDS011;74285;52.372;12.924;2024-03-08T04:31:21;28.30;;;9.93;;
84161;SDS011;74285;52.372;12.924;2024-03-08T04:33:46;28.90;;;10.98;;
84161;SDS011;74285;52.372;12.924;2024-03-08T04:36:12;30.33;;;9.50;;
84161;SDS011;74285;52.372;12.924;2024-03-08T04:38:38;28.23;;;10.45;;
84161;SDS011;74285;52.372;12.924;2024-03-08T04:41:05;24.92;;;10.93;;
84161;SDS011;74285;52.372;12.924;2024-03-08T04:43:31;25.63;;;9.77;;
84161;SDS011;74285;52.372;12.924;2024-03-08T04:45:56;25.37;;;10.87;;
84161;SDS011;74285;52.372;12.924;2024-03-08T04:48:21;26.40;;;10.70;;
84161;SDS011;74285;52.372;12.924;2024-03-08T04:50:47;28.60;;;11.53;;
84161;SDS011;74285;52.372;12.924;2024-03-08T04:53:12;29.38;;;10.93;;
84161;SDS011;74285;52.372;12.924;2024-03-08T04:55:37;27.53;;;10.23;;
84161;SDS011;74285;52.372;12.924;2024-03-08T04:58:03;24.37;;;10.43;;
84161;SDS011;74285;52.372;12.924;2024-03-08T05:00:30;29.70;;;10.68;;
84161;SDS011;74285;52.372;12.924;2024-03-08T05:02:56;25.27;;;9.95;;
84161;SDS011;74285;52.372;12.924;2024-03-08T05:05:21;30.73;;;10.87;;
84161;SDS011;74285;52.372;12.924;2024-03-08T05:07:47;26.00;;;10.93;;
84161;SDS011;74285;52.372;12.924;2024-03-08T05:10:13;26.65;;;10.82;;
84161;SDS011;74285;52.372;12.924;2024-03-08T05:12:42;26.17;;;10.90;;
84161;SDS011;74285;52.372;12.924;2024-03-08T05:15:08;26.88;;;10.05;;
84161;SDS011;74285;52.372;12.924;2024-03-08T05:17:33;28.35;;;10.93;;
84161;SDS011;74285;52.372;12.924;2024-03-08T05:19:59;27.95;;;10.65;;
84161;SDS011;74285;52.372;12.924;2024-03-08T05:22:24;25.77;;;10.00;;
84161;SDS011;74285;52.372;12.924;2024-03-08T05:24:50;25.00;;;10.68;;
84161;SDS011;74285;52.372;12.924;2024-03-08T05:27:16;27.87;;;10.97;;
84161;SDS011;74285;52.372;12.924;2024-03-08T05:29:41;28.60;;;10.47;;
84161;SDS011;74285;52.372;12.924;2024-03-08T05:32:06;29.63;;;12.97;;
84161;SDS011;74285;52.372;12.924;2024-03-08T05:34:32;28.08;;;11.50;;
84161;SDS011;74285;52.372;12.924;2024-03-08T05:36:57;32.22;;;10.70;;
84161;SDS011;74285;52.372;12.924;2024-03-08T05:39:23;30.88;;;11.18;;
84161;SDS011;74285;52.372;12.924;2024-03-08T05:41:48;27.93;;;10.53;;
84161;SDS011;74285;52.372;12.924;2024-03-08T05:44:14;29.60;;;10.63;;
84161;SDS011;74285;52.372;12.924;2024-03-08T05:46:41;27.45;;;10.82;;
84161;SDS011;74285;52.372;12.924;2024-03-08T05:49:07;27.33;;;12.15;;
84161;SDS011;74285;52.372;12.924;2024-03-08T05:51:35;27.52;;;11.82;;
84161;SDS011;74285;52.372;12.924;2024-03-08T05:54:01;28.52;;;10.68;;
84161;SDS011;74285;52.372;12.924;2024-03-08T05:56:36;24.13;;;10.38;;
84161;SDS011;74285;52.372;12.924;2024-03-08T05:59:08;28.98;;;12.30;;
84161;SDS011;74285;52.372;12.924;2024-03-08T06:01:34;37.92;;;13.68;;
84161;SDS011;74285;52.372;12.924;2024-03-08T06:08:51;29.40;;;11.10;;
84161;SDS011;74285;52.372;12.924;2024-03-08T06:11:17;26.58;;;9.38;;
84161;SDS011;74285;52.372;12.924;2024-03-08T06:13:44;28.98;;;12.20;;
84161;SDS011;74285;52.372;12.924;2024-03-08T06:16:09;26.15;;;10.82;;
84161;SDS011;74285;52.372;12.924;2024-03-08T06:18:35;27.65;;;12.00;;
84161;SDS011;74285;52.372;12.924;2024-03-08T06:21:07;31.92;;;11.88;;
84161;SDS011;74285;52.372;12.924;2024-03-08T06:23:34;25.75;;;10.95;;
84161;SDS011;74285;52.372;12.924;2024-03-08T06:26:03;23.00;;;10.80;;
84161;SDS011;74285;52.372;12.924;2024-03-08T06:28:31;28.20;;;10.00;;
84161;SDS011;74285;52.372;12.924;2024-03-08T06:31:00;24.83;;;10.23;;
84161;SDS011;74285;52.372;12.924;2024-03-08T06:33:25;31.58;;;11.82;;
84161;SDS011;74285;52.372;12.924;2024-03-08T06:35:53;29.30;;;11.73;;
84161;SDS011;74285;52.372;12.924;2024-03-08T06:38:23;31.17;;;10.68;;
84161;SDS011;74285;52.372;12.924;2024-03-08T06:40:51;25.70;;;10.70;;
84161;SDS011;74285;52.372;12.924;2024-03-08T06:43:17;33.22;;;10.88;;
84161;SDS011;74285;52.372;12.924;2024-03-08T06:45:43;25.67;;;10.57;;
84161;SDS011;74285;52.372;12.924;2024-03-08T06:48:18;31.00;;;11.13;;
84161;SDS011;74285;52.372;12.924;2024-03-08T06:50:44;29.35;;;12.77;;
84161;SDS011;74285;52.372;12.924;2024-03-08T06:53:10;30.88;;;12.63;;
84161;SDS011;74285;52.372;12.924;2024-03-08T06:55:35;27.20;;;11.52;;
84161;SDS011;74285;52.372;12.924;2024-03-08T06:58:01;30.07;;;12.23;;
84161;SDS011;74285;52.372;12.924;2024-03-08T07:00:27;27.88;;;10.70;;
84161;SDS011;74285;52.372;12.924;2024-03-08T07:02:53;30.90;;;12.27;;
84161;SDS011;74285;52.372;12.924;2024-03-08T07:05:19;22.00;;;9.98;;
84161;SDS011;74285;52.372;12.924;2024-03-08T07:07:44;26.73;;;11.80;;
84161;SDS011;74285;52.372;12.924;2024-03-08T07:10:13;26.42;;;10.90;;
84161;SDS011;74285;52.372;12.924;2024-03-08T07:12:40;29.65;;;12.07;;
84161;SDS011;74285;52.372;12.924;2024-03-08T07:15:05;33.42;;;12.27;;
84161;SDS011;74285;52.372;12.924;2024-03-08T07:17:31;26.23;;;11.23;;
84161;SDS011;74285;52.372;12.924;2024-03-08T07:19:59;28.77;;;11.13;;
84161;SDS011;74285;52.372;12.924;2024-03-08T07:22:24;27.40;;;11.18;;
84161;SDS011;74285;52.372;12.924;2024-03-08T07:24:50;26.90;;;11.07;;
84161;SDS011;74285;52.372;12.924;2024-03-08T07:27:41;26.17;;;11.15;;
84161;SDS011;74285;52.372;12.924;2024-03-08T07:30:06;23.77;;;10.93;;
84161;SDS011;74285;52.372;12.924;2024-03-08T07:32:35;27.45;;;12.35;;
84161;SDS011;74285;52.372;12.924;2024-03-08T07:35:00;24.88;;;11.02;;
84161;SDS011;74285;52.372;12.924;2024-03-08T07:37:27;28.27;;;11.00;;
84161;SDS011;74285;52.372;12.924;2024-03-08T07:39:52;28.57;;;12.00;;
84161;SDS011;74285;52.372;12.924;2024-03-08T07:42:17;24.50;;;11.00;;
84161;SDS011;74285;52.372;12.924;2024-03-08T07:44:42;24.73;;;12.43;;
84161;SDS011;74285;52.372;12.924;2024-03-08T07:47:08;21.60;;;9.73;;
84161;SDS011;74285;52.372;12.924;2024-03-08T07:49:34;27.42;;;10.93;;
84161;SDS011;74285;52.372;12.924;2024-03-08T07:52:03;27.35;;;11.48;;
84161;SDS011;74285;52.372;12.924;2024-03-08T07:54:29;24.50;;;10.98;;
84161;SDS011;74285;52.372;12.924;2024-03-08T07:56:55;25.30;;;11.35;;
84161;SDS011;74285;52.372;12.924;2024-03-08T07:59:20;27.20;;;11.07;;
84161;SDS011;74285;52.372;12.924;2024-03-08T08:01:46;27.95;;;12.40;;
84161;SDS011;74285;52.372;12.924;2024-03-08T08:04:12;25.02;;;11.63;;
84161;SDS011;74285;52.372;12.924;2024-03-08T08:06:39;26.10;;;11.52;;
84161;SDS011;74285;52.372;12.924;2024-03-08T08:09:06;25.33;;;12.07;;
84161;SDS011;74285;52.372;12.924;2024-03-08T08:11:39;26.77;;;10.82;;
84161;SDS011;74285;52.372;12.924;2024-03-08T08:14:05;26.52;;;11.10;;
84161;SDS011;74285;52.372;12.924;2024-03-08T08:16:31;25.23;;;10.40;;
84161;SDS011;74285;52.372;12.924;2024-03-08T08:18:57;26.25;;;12.07;;
84161;SDS011;74285;52.372;12.924;2024-03-08T08:21:22;26.43;;;12.00;;
84161;SDS011;74285;52.372;12.924;2024-03-08T08:23:47;22.57;;;10.03;;
84161;SDS011;74285;52.372;12.924;2024-03-08T08:26:12;24.57;;;9.93;;
84161;SDS011;74285;52.372;12.924;2024-03-08T08:28:38;50.07;;;21.60;;
84161;SDS011;74285;52.372;12.924;2024-03-08T08:31:03;29.55;;;12.40;;
84161;SDS011;74285;52.372;12.924;2024-03-08T08:33:29;25.02;;;10.75;;
84161;SDS011;74285;52.372;12.924;2024-03-08T08:35:54;22.50;;;9.23;;
84161;SDS011;74285;52.372;12.924;2024-03-08T08:38:20;40.35;;;15.50;;
84161;SDS011;74285;52.372;12.924;2024-03-08T08:40:46;24.92;;;12.55;;
84161;SDS011;74285;52.372;12.924;2024-03-08T08:43:12;24.38;;;11.02;;
84161;SDS011;74285;52.372;12.924;2024-03-08T08:45:37;35.05;;;15.38;;
84161;SDS011;74285;52.372;12.924;2024-03-08T08:48:03;23.90;;;9.60;;
84161;SDS011;74285;52.372;12.924;2024-03-08T08:50:30;24.00;;;10.68;;
84161;SDS011;74285;52.372;12.924;2024-03-08T08:52:56;24.52;;;10.77;;
84161;SDS011;74285;52.372;12.924;2024-03-08T08:55:21;37.97;;;16.23;;
84161;SDS011;74285;52.372;12.924;2024-03-08T08:57:50;23.38;;;12.15;;
84161;SDS011;74285;52.372;12.924;2024-03-08T09:00:16;21.90;;;9.80;;
84161;SDS011;74285;52.372;12.924;2024-03-08T09:02:43;25.77;;;11.80;;
84161;SDS011;74285;52.372;12.924;2024-03-08T09:05:09;26.88;;;11.00;;
84161;SDS011;74285;52.372;12.924;2024-03-08T09:07:34;26.05;;;10.63;;
84161;SDS011;74285;52.372;12.924;2024-03-08T09:10:00;25.27;;;10.40;;
84161;SDS011;74285;52.372;12.924;2024-03-08T09:12:25;23.95;;;10.77;;
84161;SDS011;74285;52.372;12.924;2024-03-08T09:14:51;33.85;;;15.07;;
84161;SDS011;74285;52.372;12.924;2024-03-08T09:17:16;26.37;;;12.23;;
84161;SDS011;74285;52.372;12.924;2024-03-08T09:19:47;21.85;;;10.80;;
84161;SDS011;74285;52.372;12.924;2024-03-08T09:22:13;21.33;;;9.77;;
84161;SDS011;74285;52.372;12.924;2024-03-08T09:24:38;25.55;;;11.32;;
84161;SDS011;74285;52.372;12.924;2024-03-08T09:27:04;20.38;;;9.60;;
84161;SDS011;74285;52.372;12.924;2024-03-08T09:29:29;23.00;;;10.50;;
84161;SDS011;74285;52.372;12.924;2024-03-08T09:31:54;23.43;;;10.13;;
84161;SDS011;74285;52.372;12.924;2024-03-08T09:34:20;24.75;;;10.25;;
84161;SDS011;74285;52.372;12.924;2024-03-08T09:36:46;22.47;;;9.80;;
84161;SDS011;74285;52.372;12.924;2024-03-08T09:39:11;19.65;;;9.23;;
84161;SDS011;74285;52.372;12.924;2024-03-08T09:41:41;23.60;;;9.80;;
84161;SDS011;74285;52.372;12.924;2024-03-08T09:44:08;20.23;;;9.45;;
84161;SDS011;74285;52.372;12.924;2024-03-08T09:46:33;22.33;;;10.20;;
84161;SDS011;74285;52.372;12.924;2024-03-08T09:48:59;19.30;;;9.23;;
84161;SDS011;74285;52.372;12.924;2024-03-08T09:51:27;21.10;;;9.02;;
84161;SDS011;74285;52.372;12.924;2024-03-08T09:53:53;19.27;;;8.18;;
84161;SDS011;74285;52.372;12.924;2024-03-08T09:56:19;18.93;;;8.10;;
84161;SDS011;74285;52.372;12.924;2024-03-08T09:58:45;18.20;;;8.80;;
84161;SDS011;74285;52.372;12.924;2024-03-08T10:01:33;17.10;;;8.38;;
84161;SDS011;74285;52.372;12.924;2024-03-08T10:03:58;20.90;;;8.07;;
84161;SDS011;74285;52.372;12.924;2024-03-08T10:06:23;14.87;;;7.87;;
84161;SDS011;74285;52.372;12.924;2024-03-08T10:08:49;18.27;;;7.85;;
84161;SDS011;74285;52.372;12.924;2024-03-08T10:11:16;14.93;;;6.85;;
84161;SDS011;74285;52.372;12.924;2024-03-08T10:13:42;20.67;;;8.55;;
84161;SDS011;74285;52.372;12.924;2024-03-08T10:16:07;16.90;;;7.60;;
84161;SDS011;74285;52.372;12.924;2024-03-08T10:18:33;19.88;;;8.55;;
84161;SDS011;74285;52.372;12.924;2024-03-08T10:21:02;18.10;;;8.03;;
84161;SDS011;74285;52.372;12.924;2024-03-08T10:23:29;19.05;;;7.80;;
84161;SDS011;74285;52.372;12.924;2024-03-08T10:25:55;18.00;;;7.63;;
84161;SDS011;74285;52.372;12.924;2024-03-08T10:28:23;21.02;;;8.52;;
84161;SDS011;74285;52.372;12.924;2024-03-08T10:30:49;13.90;;;6.43;;
84161;SDS011;74285;52.372;12.924;2024-03-08T10:33:15;14.30;;;6.77;;
84161;SDS011;74285;52.372;12.924;2024-03-08T10:35:40;21.83;;;8.07;;
84161;SDS011;74285;52.372;12.924;2024-03-08T10:38:05;20.13;;;7.90;;
84161;SDS011;74285;52.372;12.924;2024-03-08T10:40:33;22.55;;;8.35;;
84161;SDS011;74285;52.372;12.924;2024-03-08T10:43:01;18.88;;;7.75;;
84161;SDS011;74285;52.372;12.924;2024-03-08T10:45:31;22.00;;;9.15;;
84161;SDS011;74285;52.372;12.924;2024-03-08T10:48:04;21.23;;;8.55;;
84161;SDS011;74285;52.372;12.924;2024-03-08T10:50:35;18.52;;;8.63;;
84161;SDS011;74285;52.372;12.924;2024-03-08T10:55:28;18.73;;;7.80;;
84161;SDS011;74285;52.372;12.924;2024-03-08T10:57:53;18.55;;;7.78;;
84161;SDS011;74285;52.372;12.924;2024-03-08T11:00:19;19.23;;;8.32;;
84161;SDS011;74285;52.372;12.924;2024-03-08T11:02:51;18.60;;;9.18;;
84161;SDS011;74285;52.372;12.924;2024-03-08T11:05:36;18.20;;;9.63;;
84161;SDS011;74285;52.372;12.924;2024-03-08T11:08:18;21.98;;;7.65;;
84161;SDS011;74285;52.372;12.924;2024-03-08T11:10:47;13.63;;;7.28;;
84161;SDS011;74285;52.372;12.924;2024-03-08T11:16:01;17.08;;;8.82;;
84161;SDS011;74285;52.372;12.924;2024-03-08T11:18:31;16.67;;;8.23;;
84161;SDS011;74285;52.372;12.924;2024-03-08T11:20:58;21.38;;;8.35;;
84161;SDS011;74285;52.372;12.924;2024-03-08T11:23:23;23.33;;;9.00;;
84161;SDS011;74285;52.372;12.924;2024-03-08T11:25:50;14.73;;;5.80;;
84161;SDS011;74285;52.372;12.924;2024-03-08T11:30:46;16.83;;;7.97;;
84161;SDS011;74285;52.372;12.924;2024-03-08T11:33:27;16.25;;;7.72;;
84161;SDS011;74285;52.372;12.924;2024-03-08T11:38:22;17.08;;;7.28;;
84161;SDS011;74285;52.372;12.924;2024-03-08T11:40:48;18.07;;;8.20;;
84161;SDS011;74285;52.372;12.924;2024-03-08T11:43:16;15.65;;;7.60;;
84161;SDS011;74285;52.372;12.924;2024-03-08T11:48:08;14.70;;;7.40;;
84161;SDS011;74285;52.372;12.924;2024-03-08T11:50:33;17.35;;;7.50;;
84161;SDS011;74285;52.372;12.924;2024-03-08T11:53:05;18.60;;;8.00;;
84161;SDS011;74285;52.372;12.924;2024-03-08T11:55:33;15.32;;;6.63;;
84161;SDS011;74285;52.372;12.924;2024-03-08T11:58:03;15.63;;;7.53;;
84161;SDS011;74285;52.372;12.924;2024-03-08T12:00:29;15.38;;;6.80;;
84161;SDS011;74285;52.372;12.924;2024-03-08T12:03:03;19.27;;;6.78;;
84161;SDS011;74285;52.372;12.924;2024-03-08T12:05:29;15.25;;;7.22;;
84161;SDS011;74285;52.372;12.924;2024-03-08T12:07:59;12.55;;;6.22;;
84161;SDS011;74285;52.372;12.924;2024-03-08T12:10:25;17.45;;;7.78;;
84161;SDS011;74285;52.372;12.924;2024-03-08T12:12:51;17.33;;;7.15;;
84161;SDS011;74285;52.372;12.924;2024-03-08T12:15:21;15.48;;;7.15;;
84161;SDS011;74285;52.372;12.924;2024-03-08T12:17:48;13.68;;;6.15;;
84161;SDS011;74285;52.372;12.924;2024-03-08T12:20:18;13.80;;;6.45;;
84161;SDS011;74285;52.372;12.924;2024-03-08T12:22:46;14.45;;;6.22;;
84161;SDS011;74285;52.372;12.924;2024-03-08T12:25:12;15.65;;;7.15;;
84161;SDS011;74285;52.372;12.924;2024-03-08T12:27:39;14.95;;;6.88;;
84161;SDS011;74285;52.372;12.924;2024-03-08T12:30:24;18.23;;;7.00;;
84161;SDS011;74285;52.372;12.924;2024-03-08T12:32:58;17.48;;;7.03;;
84161;SDS011;74285;52.372;12.924;2024-03-08T12:35:28;15.23;;;7.18;;
84161;SDS011;74285;52.372;12.924;2024-03-08T12:37:55;19.98;;;8.07;;
84161;SDS011;74285;52.372;12.924;2024-03-08T12:42:59;14.30;;;6.75;;
84161;SDS011;74285;52.372;12.924;2024-03-08T12:45:25;14.40;;;7.03;;
84161;SDS011;74285;52.372;12.924;2024-03-08T12:47:50;16.53;;;7.87;;
84161;SDS011;74285;52.372;12.924;2024-03-08T12:50:16;14.82;;;7.20;;
84161;SDS011;74285;52.372;12.924;2024-03-08T12:52:42;17.83;;;6.80;;
84161;SDS011;74285;52.372;12.924;2024-03-08T12:55:07;13.90;;;6.78;;
84161;SDS011;74285;52.372;12.924;2024-03-08T12:57:33;16.23;;;7.18;;
84161;SDS011;74285;52.372;12.924;2024-03-08T13:00:00;14.95;;;6.28;;
84161;SDS011;74285;52.372;12.924;2024-03-08T13:04:51;11.77;;;6.13;;
84161;SDS011;74285;52.372;12.924;2024-03-08T13:07:22;16.25;;;6.72;;
84161;SDS011;74285;52.372;12.924;2024-03-08T13:09:51;14.38;;;7.28;;
84161;SDS011;74285;52.372;12.924;2024-03-08T13:12:22;17.50;;;6.97;;
84161;SDS011;74285;52.372;12.924;2024-03-08T13:14:48;11.30;;;6.03;;
84161;SDS011;74285;52.372;12.924;2024-03-08T13:17:14;18.33;;;7.03;;
84161;SDS011;74285;52.372;12.924;2024-03-08T13:19:40;16.23;;;6.78;;
84161;SDS011;74285;52.372;12.924;2024-03-08T13:22:06;14.70;;;6.60;;
84161;SDS011;74285;52.372;12.924;2024-03-08T13:24:32;15.57;;;7.40;;
84161;SDS011;74285;52.372;12.924;2024-03-08T13:26:57;14.90;;;7.30;;
84161;SDS011;74285;52.372;12.924;2024-03-08T13:29:24;13.18;;;7.05;;
84161;SDS011;74285;52.372;12.924;2024-03-08T13:31:49;14.20;;;6.33;;
84161;SDS011;74285;52.372;12.924;2024-03-08T13:34:19;20.30;;;10.20;;
84161;SDS011;74285;52.372;12.924;2024-03-08T13:36:52;13.68;;;5.90;;
84161;SDS011;74285;52.372;12.924;2024-03-08T13:39:19;15.65;;;6.80;;
84161;SDS011;74285;52.372;12.924;2024-03-08T13:41:46;11.98;;;5.90;;
84161;SDS011;74285;52.372;12.924;2024-03-08T13:44:11;16.13;;;8.45;;
84161;SDS011;74285;52.372;12.924;2024-03-08T13:46:37;14.13;;;6.75;;
84161;SDS011;74285;52.372;12.924;2024-03-08T13:49:05;12.63;;;6.27;;
84161;SDS011;74285;52.372;12.924;2024-03-08T13:51:32;13.10;;;6.28;;
84161;SDS011;74285;52.372;12.924;2024-03-08T13:53:58;14.23;;;6.20;;
84161;SDS011;74285;52.372;12.924;2024-03-08T13:56:25;16.58;;;6.43;;
84161;SDS011;74285;52.372;12.924;2024-03-08T13:58:51;12.13;;;6.28;;
84161;SDS011;74285;52.372;12.924;2024-03-08T14:01:16;11.47;;;6.17;;
84161;SDS011;74285;52.372;12.924;2024-03-08T14:03:41;14.63;;;6.53;;
84161;SDS011;74285;52.372;12.924;2024-03-08T14:06:07;12.93;;;5.83;;
84161;SDS011;74285;52.372;12.924;2024-03-08T14:08:34;13.93;;;6.63;;
84161;SDS011;74285;52.372;12.924;2024-03-08T14:10:59;12.20;;;6.40;;
84161;SDS011;74285;52.372;12.924;2024-03-08T14:13:26;10.77;;;5.03;;
84161;SDS011;74285;52.372;12.924;2024-03-08T14:15:51;12.57;;;5.80;;
84161;SDS011;74285;52.372;12.924;2024-03-08T14:18:17;11.23;;;5.85;;
84161;SDS011;74285;52.372;12.924;2024-03-08T14:20:43;11.43;;;5.60;;
84161;SDS011;74285;52.372;12.924;2024-03-08T14:23:09;11.60;;;5.30;;
84161;SDS011;74285;52.372;12.924;2024-03-08T14:25:35;11.13;;;5.40;;
84161;SDS011;74285;52.372;12.924;2024-03-08T14:28:00;11.67;;;5.20;;
84161;SDS011;74285;52.372;12.924;2024-03-08T14:30:32;10.57;;;5.18;;
84161;SDS011;74285;52.372;12.924;2024-03-08T14:33:06;11.57;;;5.57;;
84161;SDS011;74285;52.372;12.924;2024-03-08T14:35:33;13.02;;;5.25;;
84161;SDS011;74285;52.372;12.924;2024-03-08T14:37:59;9.98;;;4.72;;